createdAt,value
2018-06-03T00:01:21.400Z,49.07
2018-06-03T00:06:24.627Z,51.23
2018-06-03T00:11:27.118Z,49.17
2018-06-03T00:16:29.575Z,48.70
2018-06-03T00:21:42.800Z,52.17
2018-06-03T00:31:54.948Z,51.13
2018-06-03T00:36:57.403Z,54.43
2018-06-03T00:41:59.858Z,49.13
2018-06-03T00:47:03.194Z,49.00
2018-06-03T00:52:06.409Z,48.43
2018-06-03T00:57:09.568Z,48.80
2018-06-03T01:02:12.033Z,47.93
2018-06-03T01:07:14.677Z,48.00
2018-06-03T01:12:17.117Z,50.23
2018-06-03T01:17:38.933Z,50.67
2018-06-03T01:22:41.366Z,46.43
2018-06-03T01:27:43.891Z,46.60
2018-06-03T01:32:46.373Z,46.67
2018-06-03T01:37:49.799Z,48.63
2018-06-03T01:42:52.357Z,45.70
2018-06-03T01:47:54.790Z,46.03
2018-06-03T01:53:19.434Z,44.17
2018-06-03T01:58:22.645Z,45.87
2018-06-03T02:03:27.869Z,43.00
2018-06-03T02:08:30.413Z,45.87
2018-06-03T02:13:32.958Z,44.43
2018-06-03T02:18:35.509Z,44.30
2018-06-03T02:23:38.070Z,44.13
2018-06-03T02:28:40.545Z,45.90
2018-06-03T02:33:43.002Z,44.50
2018-06-03T02:38:45.450Z,42.90
2018-06-03T02:43:48.679Z,47.80
2018-06-03T02:48:51.240Z,44.57
2018-06-03T02:53:53.682Z,46.93
2018-06-03T02:58:57.196Z,49.60
2018-06-03T03:03:59.965Z,47.00
2018-06-03T03:09:02.435Z,46.63
2018-06-03T03:14:05.714Z,46.83
2018-06-03T03:19:08.239Z,52.27
2018-06-03T03:24:10.827Z,53.17
2018-06-03T03:29:13.956Z,49.27
2018-06-03T03:39:38.546Z,45.93
2018-06-03T03:44:40.993Z,48.67
2018-06-03T03:49:44.347Z,48.60
2018-06-03T03:55:15.530Z,53.27
2018-06-03T04:00:18.087Z,50.80
2018-06-03T04:05:46.188Z,48.73
2018-06-03T04:10:48.625Z,55.37
2018-06-03T04:15:51.081Z,55.73
2018-06-03T04:20:53.546Z,53.30
2018-06-03T04:25:56.908Z,53.30
2018-06-03T04:30:59.373Z,56.13
2018-06-03T04:36:01.823Z,56.03
2018-06-03T04:41:05.042Z,55.33
2018-06-03T04:46:08.267Z,58.47
2018-06-03T04:51:11.494Z,54.90
2018-06-03T04:56:14.908Z,57.60
2018-06-03T05:01:18.117Z,58.80
2018-06-03T05:06:20.629Z,56.90
2018-06-03T05:11:23.085Z,56.87
2018-06-03T05:16:26.320Z,59.37
2018-06-03T05:21:28.775Z,65.53
2018-06-03T05:26:32.037Z,64.23
2018-06-03T05:31:34.488Z,67.73
2018-06-03T05:36:37.707Z,64.43
2018-06-03T05:41:40.927Z,62.40
2018-06-03T05:46:43.454Z,64.03
2018-06-03T05:51:46.103Z,64.17
2018-06-03T05:56:48.543Z,66.93
2018-06-03T06:02:05.274Z,65.40
2018-06-03T06:07:07.851Z,63.23
2018-06-03T06:12:15.605Z,63.50
2018-06-03T06:17:18.049Z,61.83
2018-06-03T06:22:20.842Z,61.17
2018-06-03T06:27:28.238Z,60.90
2018-06-03T06:32:36.524Z,66.47
2018-06-03T06:37:39.119Z,61.90
2018-06-03T06:42:41.577Z,63.30
2018-06-03T06:47:44.529Z,62.53
2018-06-03T06:52:48.469Z,65.43
2018-06-03T06:57:51.702Z,59.43
2018-06-03T07:02:54.928Z,62.27
2018-06-03T07:08:00.128Z,59.13
2018-06-03T07:13:02.730Z,61.03
2018-06-03T07:18:05.189Z,62.63
2018-06-03T07:23:07.668Z,62.90
2018-06-03T07:28:10.162Z,62.37
2018-06-03T07:33:12.617Z,62.53
2018-06-03T07:38:15.135Z,59.97
2018-06-03T07:43:18.317Z,62.37
2018-06-03T07:48:20.766Z,58.10
2018-06-03T07:53:23.371Z,58.10
2018-06-03T07:58:41.223Z,68.97
2018-06-03T08:03:43.714Z,57.10
2018-06-03T08:08:46.162Z,62.90
2018-06-03T08:13:49.446Z,59.90
2018-06-03T08:18:51.837Z,58.93
2018-06-03T08:24:02.989Z,58.07
2018-06-03T08:29:05.473Z,52.70
2018-06-03T08:34:07.969Z,46.10
2018-06-03T08:39:10.527Z,44.80
2018-06-03T08:49:40.941Z,46.47
2018-06-03T08:54:43.407Z,47.07
2018-06-03T08:59:46.654Z,51.43
2018-06-03T09:04:49.546Z,53.07
2018-06-03T09:09:52.013Z,49.97
2018-06-03T09:14:54.457Z,48.07
2018-06-03T09:19:56.917Z,46.53
2018-06-03T09:24:59.417Z,44.83
2018-06-03T09:30:01.914Z,43.67
2018-06-03T09:35:04.380Z,46.03
2018-06-03T09:40:07.743Z,42.27
2018-06-03T09:45:10.185Z,44.57
2018-06-03T09:50:13.422Z,47.90
2018-06-03T09:55:15.925Z,46.80
2018-06-03T10:00:18.437Z,47.47
2018-06-03T10:05:20.851Z,45.67
2018-06-03T10:10:23.401Z,48.67
2018-06-03T10:15:26.104Z,50.07
2018-06-03T10:20:28.556Z,48.73
2018-06-03T10:25:31.900Z,50.30
2018-06-03T10:30:34.398Z,52.13
2018-06-03T10:35:36.852Z,51.67
2018-06-03T10:40:39.301Z,50.07
2018-06-03T10:46:09.275Z,49.10
2018-06-03T10:51:11.814Z,49.47
2018-06-03T10:56:14.321Z,51.10
2018-06-03T11:01:16.815Z,51.00
2018-06-03T11:06:19.266Z,47.17
2018-06-03T11:11:22.509Z,48.47
2018-06-03T11:16:25.773Z,43.90
2018-06-03T11:21:28.243Z,41.47
2018-06-03T11:26:30.690Z,45.67
2018-06-03T11:31:33.292Z,40.67
2018-06-03T11:36:35.773Z,38.40
2018-06-03T11:41:38.972Z,43.77
2018-06-03T11:46:42.202Z,41.43
2018-06-03T11:51:45.222Z,42.17
2018-06-03T12:03:05.758Z,39.80
2018-06-03T12:08:08.843Z,44.47
2018-06-03T12:13:30.708Z,43.70
2018-06-03T12:18:33.555Z,41.93
2018-06-03T12:23:36.606Z,44.33
2018-06-03T12:28:39.793Z,43.07
2018-06-03T12:33:44.717Z,35.00
2018-06-03T12:38:48.013Z,37.73
2018-06-03T12:43:51.103Z,36.87
2018-06-03T12:48:54.163Z,37.97
2018-06-03T12:53:57.257Z,33.67
2018-06-03T12:59:01.786Z,29.87
2018-06-03T13:04:06.605Z,26.57
2018-06-03T13:09:09.516Z,32.40
2018-06-03T13:14:12.580Z,35.40
2018-06-03T13:19:15.709Z,30.63
2018-06-03T13:24:18.817Z,31.97
2018-06-03T13:29:21.874Z,28.37
2018-06-03T13:34:25.993Z,29.27
2018-06-03T13:39:32.206Z,25.60
2018-06-03T13:44:36.200Z,27.30
2018-06-03T13:49:39.328Z,30.33
2018-06-03T13:54:42.469Z,26.73
2018-06-03T13:59:46.618Z,29.07
2018-06-03T14:04:49.662Z,29.77
2018-06-03T14:09:52.822Z,30.63
2018-06-03T14:14:55.917Z,26.10
2018-06-03T14:20:07.529Z,22.37
2018-06-03T14:25:10.743Z,26.03
2018-06-03T14:30:13.789Z,23.67
2018-06-03T14:35:16.847Z,24.90
2018-06-03T14:40:20.681Z,22.57
2018-06-03T14:45:23.729Z,25.60
2018-06-03T14:50:32.705Z,23.30
2018-06-03T14:55:35.709Z,19.23
2018-06-03T15:00:38.713Z,26.33
2018-06-03T15:05:41.774Z,24.13
2018-06-03T15:10:44.848Z,25.43
2018-06-03T15:15:47.909Z,22.63
2018-06-03T15:20:50.988Z,22.73
2018-06-03T15:25:54.091Z,23.27
2018-06-03T15:30:57.149Z,19.83
2018-06-03T15:36:03.471Z,23.00
2018-06-03T15:41:06.797Z,22.67
2018-06-03T15:46:10.547Z,17.70
2018-06-03T15:51:13.608Z,21.20
2018-06-03T15:56:16.665Z,18.33
2018-06-03T16:01:21.305Z,16.67
2018-06-03T16:06:24.457Z,16.03
2018-06-03T16:11:27.541Z,16.17
2018-06-03T16:16:30.618Z,17.10
2018-06-03T16:21:33.682Z,17.57
2018-06-03T16:26:36.917Z,15.50
2018-06-03T16:31:40.147Z,15.67
2018-06-03T16:42:45.849Z,19.93
2018-06-03T16:47:49.220Z,18.43
2018-06-03T16:52:52.282Z,16.87
2018-06-03T16:57:55.357Z,15.80
2018-06-03T17:03:06.772Z,15.80
2018-06-03T17:08:12.821Z,13.00
2018-06-03T17:13:16.592Z,13.60
2018-06-03T17:18:19.618Z,14.53
2018-06-03T17:23:39.479Z,20.13
2018-06-03T17:28:42.545Z,16.13
2018-06-03T17:33:45.588Z,14.77
2018-06-03T17:38:48.768Z,14.90
2018-06-03T17:43:51.830Z,18.40
2018-06-03T17:48:54.889Z,19.23
2018-06-03T17:53:57.933Z,15.20
2018-06-03T17:59:01.030Z,14.40
2018-06-03T18:04:04.928Z,15.40
2018-06-03T18:09:08.515Z,15.57
2018-06-03T18:14:11.573Z,20.23
2018-06-03T18:19:14.638Z,19.43
2018-06-03T18:24:17.698Z,16.87
2018-06-03T18:29:20.750Z,16.63
2018-06-03T18:34:23.861Z,16.80
2018-06-03T18:39:26.908Z,20.23
2018-06-03T18:44:29.957Z,16.73
2018-06-03T18:49:33.005Z,15.63
2018-06-03T18:54:35.953Z,22.07
2018-06-03T18:59:39.153Z,24.87
2018-06-03T19:04:42.197Z,27.57
2018-06-03T19:09:45.666Z,24.43
2018-06-03T19:15:04.483Z,24.60
2018-06-03T19:20:13.618Z,28.00
2018-06-03T19:30:28.245Z,20.70
2018-06-03T19:35:31.428Z,17.00
2018-06-03T19:40:34.557Z,17.83
2018-06-03T19:45:37.609Z,19.07
2018-06-03T19:50:41.500Z,21.27
2018-06-03T19:55:44.692Z,19.10
2018-06-03T20:00:47.842Z,18.03
2018-06-03T20:05:50.778Z,15.30
2018-06-03T20:10:53.865Z,15.63
2018-06-03T20:15:56.974Z,16.20
2018-06-03T20:21:00.024Z,17.10
2018-06-03T20:26:03.136Z,16.83
2018-06-03T20:31:07.394Z,16.83
2018-06-03T20:36:10.844Z,17.00
2018-06-03T20:41:13.921Z,17.97
2018-06-03T20:46:16.963Z,19.80
2018-06-03T20:51:20.013Z,18.97
2018-06-03T20:56:23.152Z,18.57
2018-06-03T21:01:26.181Z,17.63
2018-06-03T21:06:29.233Z,17.73
2018-06-03T21:11:32.304Z,17.97
2018-06-03T21:16:36.909Z,18.07
2018-06-03T21:21:39.971Z,18.50
2018-06-03T21:26:43.019Z,19.17
2018-06-03T21:31:46.069Z,18.40
2018-06-03T21:36:49.114Z,21.27
2018-06-03T21:41:52.180Z,20.03
2018-06-03T21:46:55.226Z,20.20
2018-06-03T21:52:00.066Z,21.43
2018-06-03T21:57:03.099Z,21.33
2018-06-03T22:02:06.149Z,19.33
2018-06-03T22:07:09.204Z,17.07
2018-06-03T22:12:13.262Z,24.77
2018-06-03T22:17:16.433Z,19.07
2018-06-03T22:22:19.459Z,19.83
2018-06-03T22:27:22.509Z,19.07
2018-06-03T22:32:27.344Z,19.30
2018-06-03T22:37:42.377Z,20.73
2018-06-03T22:42:45.902Z,21.03
2018-06-03T22:47:48.961Z,19.83
2018-06-03T22:52:52.678Z,20.50
2018-06-03T22:57:55.904Z,20.47
2018-06-03T23:03:04.465Z,20.10
2018-06-03T23:08:07.517Z,19.27
2018-06-03T23:13:10.577Z,19.47
2018-06-03T23:18:13.717Z,19.10
2018-06-03T23:23:39.959Z,20.47
2018-06-03T23:28:42.986Z,21.57
2018-06-03T23:34:09.466Z,21.17
2018-06-03T23:39:37.738Z,21.77
2018-06-03T23:44:40.788Z,23.63
2018-06-03T23:49:43.905Z,21.23
2018-06-03T23:54:46.969Z,22.67
2018-06-03T23:59:53.457Z,19.03
